sensor_id;sensor_type;location;lat;lon;timestamp;pressure;altitude;pressure_sealevel;temperature;humidity
25944;BME280;13742;49.306;8.636;2022-12-10T00:00:50;99441.83;;;2.45;91.53
25944;BME280;13742;49.306;8.636;2022-12-10T00:01:50;99444.39;;;2.37;91.63
25944;BME280;13742;49.306;8.636;2022-12-10T00:02:50;99440.48;;;2.36;91.52
25944;BME280;13742;49.306;8.636;2022-12-10T00:03:50;99440.58;;;2.38;91.83
25944;BME280;13742;49.306;8.636;2022-12-10T00:04:50;99442.01;;;2.40;91.83
25944;BME280;13742;49.306;8.636;2022-12-10T00:05:50;99440.06;;;2.43;91.81
25944;BME280;13742;49.306;8.636;2022-12-10T00:06:50;99441.17;;;2.42;91.86
25944;BME280;13742;49.306;8.636;2022-12-10T00:07:50;99439.39;;;2.36;91.83
25944;BME280;13742;49.306;8.636;2022-12-10T00:08:50;99443.26;;;2.28;92.21
25944;BME280;13742;49.306;8.636;2022-12-10T00:09:50;99444.46;;;2.35;92.03
25944;BME280;13742;49.306;8.636;2022-12-10T00:10:50;99444.38;;;2.38;92.00
25944;BME280;13742;49.306;8.636;2022-12-10T00:11:50;99440.34;;;2.34;91.84
25944;BME280;13742;49.306;8.636;2022-12-10T00:12:50;99440.53;;;2.27;92.09
25944;BME280;13742;49.306;8.636;2022-12-10T00:13:50;99435.47;;;2.26;92.26
25944;BME280;13742;49.306;8.636;2022-12-10T00:14:50;99436.98;;;2.16;92.61
25944;BME280;13742;49.306;8.636;2022-12-10T00:15:50;99432.38;;;2.19;93.04
25944;BME280;13742;49.306;8.636;2022-12-10T00:16:50;99434.53;;;2.21;92.92
25944;BME280;13742;49.306;8.636;2022-12-10T00:17:50;99436.17;;;2.15;93.03
25944;BME280;13742;49.306;8.636;2022-12-10T00:18:50;99437.16;;;2.11;93.26
25944;BME280;13742;49.306;8.636;2022-12-10T00:19:50;99437.35;;;2.12;93.69
25944;BME280;13742;49.306;8.636;2022-12-10T00:20:50;99437.36;;;2.08;93.47
25944;BME280;13742;49.306;8.636;2022-12-10T00:21:50;99437.13;;;2.13;93.66
25944;BME280;13742;49.306;8.636;2022-12-10T00:22:50;99442.22;;;2.09;93.55
25944;BME280;13742;49.306;8.636;2022-12-10T00:23:50;99441.61;;;2.06;93.62
25944;BME280;13742;49.306;8.636;2022-12-10T00:24:50;99442.65;;;2.06;93.76
25944;BME280;13742;49.306;8.636;2022-12-10T00:25:50;99438.38;;;2.00;93.83
25944;BME280;13742;49.306;8.636;2022-12-10T00:26:50;99437.19;;;1.97;94.09
25944;BME280;13742;49.306;8.636;2022-12-10T00:27:50;99437.36;;;1.95;94.25
25944;BME280;13742;49.306;8.636;2022-12-10T00:28:50;99439.34;;;1.94;94.20
25944;BME280;13742;49.306;8.636;2022-12-10T00:29:50;99445.45;;;1.98;94.31
25944;BME280;13742;49.306;8.636;2022-12-10T00:30:50;99441.73;;;2.03;94.13
25944;BME280;13742;49.306;8.636;2022-12-10T00:31:50;99443.44;;;2.03;94.13
25944;BME280;13742;49.306;8.636;2022-12-10T00:32:50;99443.08;;;2.01;94.00
25944;BME280;13742;49.306;8.636;2022-12-10T00:33:50;99445.30;;;1.98;93.84
25944;BME280;13742;49.306;8.636;2022-12-10T00:34:50;99442.69;;;2.02;93.73
25944;BME280;13742;49.306;8.636;2022-12-10T00:35:50;99443.05;;;2.04;93.32
25944;BME280;13742;49.306;8.636;2022-12-10T00:36:50;99440.83;;;2.03;93.71
25944;BME280;13742;49.306;8.636;2022-12-10T00:37:50;99444.25;;;1.99;94.02
25944;BME280;13742;49.306;8.636;2022-12-10T00:38:50;99438.73;;;2.04;94.23
25944;BME280;13742;49.306;8.636;2022-12-10T00:39:50;99439.67;;;2.05;94.09
25944;BME280;13742;49.306;8.636;2022-12-10T00:40:50;99437.46;;;2.04;93.92
25944;BME280;13742;49.306;8.636;2022-12-10T00:41:50;99435.50;;;2.04;93.79
25944;BME280;13742;49.306;8.636;2022-12-10T00:42:50;99432.25;;;2.06;93.74
25944;BME280;13742;49.306;8.636;2022-12-10T00:43:50;99436.20;;;2.04;93.53
25944;BME280;13742;49.306;8.636;2022-12-10T00:44:50;99433.06;;;2.06;93.51
25944;BME280;13742;49.306;8.636;2022-12-10T00:45:50;99434.39;;;2.10;93.82
25944;BME280;13742;49.306;8.636;2022-12-10T00:46:50;99437.50;;;2.09;93.46
25944;BME280;13742;49.306;8.636;2022-12-10T00:47:50;99436.25;;;2.10;93.40
25944;BME280;13742;49.306;8.636;2022-12-10T00:48:50;99438.57;;;2.11;93.30
25944;BME280;13742;49.306;8.636;2022-12-10T00:49:50;99440.88;;;2.04;93.42
25944;BME280;13742;49.306;8.636;2022-12-10T00:51:50;99444.17;;;2.03;93.53
25944;BME280;13742;49.306;8.636;2022-12-10T00:52:50;99447.48;;;2.02;93.76
25944;BME280;13742;49.306;8.636;2022-12-10T00:53:51;99446.05;;;2.04;93.84
25944;BME280;13742;49.306;8.636;2022-12-10T00:54:50;99447.20;;;2.06;93.88
25944;BME280;13742;49.306;8.636;2022-12-10T00:55:50;99449.83;;;2.06;93.63
25944;BME280;13742;49.306;8.636;2022-12-10T00:56:50;99445.38;;;2.08;93.55
25944;BME280;13742;49.306;8.636;2022-12-10T00:57:50;99449.27;;;2.10;93.54
25944;BME280;13742;49.306;8.636;2022-12-10T00:58:50;99452.25;;;2.05;93.51
25944;BME280;13742;49.306;8.636;2022-12-10T00:59:50;99450.14;;;2.05;93.59
25944;BME280;13742;49.306;8.636;2022-12-10T01:00:50;99453.41;;;2.01;93.72
25944;BME280;13742;49.306;8.636;2022-12-10T01:01:50;99456.21;;;2.06;94.02
25944;BME280;13742;49.306;8.636;2022-12-10T01:02:50;99456.53;;;2.10;93.86
25944;BME280;13742;49.306;8.636;2022-12-10T01:03:51;99454.58;;;2.11;93.81
25944;BME280;13742;49.306;8.636;2022-12-10T01:04:53;99458.52;;;2.12;93.98
25944;BME280;13742;49.306;8.636;2022-12-10T01:05:50;99457.73;;;2.10;93.58
25944;BME280;13742;49.306;8.636;2022-12-10T01:06:51;99456.31;;;2.11;93.29
25944;BME280;13742;49.306;8.636;2022-12-10T01:07:50;99458.28;;;2.13;93.54
25944;BME280;13742;49.306;8.636;2022-12-10T01:08:50;99458.31;;;2.11;93.54
25944;BME280;13742;49.306;8.636;2022-12-10T01:09:50;99455.34;;;2.11;93.67
25944;BME280;13742;49.306;8.636;2022-12-10T01:10:53;99463.56;;;2.08;93.78
25944;BME280;13742;49.306;8.636;2022-12-10T01:11:50;99460.09;;;2.04;94.04
25944;BME280;13742;49.306;8.636;2022-12-10T01:12:50;99460.98;;;2.06;94.23
25944;BME280;13742;49.306;8.636;2022-12-10T01:13:51;99462.67;;;2.05;94.43
25944;BME280;13742;49.306;8.636;2022-12-10T01:14:50;99463.11;;;2.09;94.49
25944;BME280;13742;49.306;8.636;2022-12-10T01:15:50;99466.66;;;2.05;94.28
25944;BME280;13742;49.306;8.636;2022-12-10T01:16:52;99464.16;;;2.06;94.72
25944;BME280;13742;49.306;8.636;2022-12-10T01:17:50;99465.77;;;2.10;94.50
25944;BME280;13742;49.306;8.636;2022-12-10T01:18:52;99469.42;;;2.13;94.44
25944;BME280;13742;49.306;8.636;2022-12-10T01:19:50;99471.11;;;2.16;94.36
25944;BME280;13742;49.306;8.636;2022-12-10T01:20:50;99473.41;;;2.18;94.11
25944;BME280;13742;49.306;8.636;2022-12-10T01:21:50;99472.80;;;2.21;94.00
25944;BME280;13742;49.306;8.636;2022-12-10T01:22:50;99474.65;;;2.23;93.82
25944;BME280;13742;49.306;8.636;2022-12-10T01:23:50;99471.09;;;2.23;93.58
25944;BME280;13742;49.306;8.636;2022-12-10T01:24:50;99469.88;;;2.24;93.75
25944;BME280;13742;49.306;8.636;2022-12-10T01:25:50;99472.74;;;2.23;93.47
25944;BME280;13742;49.306;8.636;2022-12-10T01:26:50;99471.20;;;2.25;93.58
25944;BME280;13742;49.306;8.636;2022-12-10T01:27:50;99471.34;;;2.27;93.53
25944;BME280;13742;49.306;8.636;2022-12-10T01:28:50;99470.07;;;2.24;93.26
25944;BME280;13742;49.306;8.636;2022-12-10T01:29:50;99470.56;;;2.24;93.54
25944;BME280;13742;49.306;8.636;2022-12-10T01:30:50;99474.80;;;2.21;93.48
25944;BME280;13742;49.306;8.636;2022-12-10T01:31:50;99476.05;;;2.21;93.79
25944;BME280;13742;49.306;8.636;2022-12-10T01:32:50;99476.02;;;2.22;93.60
25944;BME280;13742;49.306;8.636;2022-12-10T01:33:50;99478.09;;;2.25;93.78
25944;BME280;13742;49.306;8.636;2022-12-10T01:34:50;99480.16;;;2.26;93.48
25944;BME280;13742;49.306;8.636;2022-12-10T01:35:50;99478.73;;;2.28;93.60
25944;BME280;13742;49.306;8.636;2022-12-10T01:36:50;99478.92;;;2.30;93.41
25944;BME280;13742;49.306;8.636;2022-12-10T01:37:50;99473.89;;;2.31;93.49
25944;BME280;13742;49.306;8.636;2022-12-10T01:38:50;99473.14;;;2.31;93.29
25944;BME280;13742;49.306;8.636;2022-12-10T01:39:50;99469.58;;;2.33;93.36
25944;BME280;13742;49.306;8.636;2022-12-10T01:40:50;99470.64;;;2.34;93.28
25944;BME280;13742;49.306;8.636;2022-12-10T01:41:54;99474.38;;;2.35;93.36
25944;BME280;13742;49.306;8.636;2022-12-10T01:42:50;99476.29;;;2.34;93.49
25944;BME280;13742;49.306;8.636;2022-12-10T01:44:00;99473.47;;;2.34;93.46
25944;BME280;13742;49.306;8.636;2022-12-10T01:44:55;99472.84;;;2.36;93.48
25944;BME280;13742;49.306;8.636;2022-12-10T01:45:50;99475.20;;;2.35;93.30
25944;BME280;13742;49.306;8.636;2022-12-10T01:46:51;99476.41;;;2.37;93.26
25944;BME280;13742;49.306;8.636;2022-12-10T01:47:50;99480.00;;;2.38;93.18
25944;BME280;13742;49.306;8.636;2022-12-10T01:48:50;99478.89;;;2.39;93.17
25944;BME280;13742;49.306;8.636;2022-12-10T01:49:50;99476.38;;;2.32;93.35
25944;BME280;13742;49.306;8.636;2022-12-10T01:50:50;99477.73;;;2.36;93.38
25944;BME280;13742;49.306;8.636;2022-12-10T01:51:51;99481.62;;;2.34;93.30
25944;BME280;13742;49.306;8.636;2022-12-10T01:52:50;99476.59;;;2.36;93.32
25944;BME280;13742;49.306;8.636;2022-12-10T01:53:50;99479.58;;;2.37;93.29
25944;BME280;13742;49.306;8.636;2022-12-10T01:54:50;99485.41;;;2.39;93.18
25944;BME280;13742;49.306;8.636;2022-12-10T01:55:50;99485.66;;;2.40;92.91
25944;BME280;13742;49.306;8.636;2022-12-10T01:56:50;99487.97;;;2.40;92.80
25944;BME280;13742;49.306;8.636;2022-12-10T01:57:50;99490.77;;;2.42;92.89
25944;BME280;13742;49.306;8.636;2022-12-10T01:58:50;99491.68;;;2.43;92.78
25944;BME280;13742;49.306;8.636;2022-12-10T01:59:51;99494.79;;;2.44;92.82
25944;BME280;13742;49.306;8.636;2022-12-10T02:00:55;99495.38;;;2.45;92.64
25944;BME280;13742;49.306;8.636;2022-12-10T02:05:55;99499.16;;;2.46;92.26
25944;BME280;13742;49.306;8.636;2022-12-10T02:08:54;99501.98;;;2.48;92.31
25944;BME280;13742;49.306;8.636;2022-12-10T02:09:52;99502.86;;;2.49;92.11
25944;BME280;13742;49.306;8.636;2022-12-10T02:12:53;99499.81;;;2.48;91.73
25944;BME280;13742;49.306;8.636;2022-12-10T02:13:53;99499.63;;;2.48;91.61
25944;BME280;13742;49.306;8.636;2022-12-10T02:15:56;99503.45;;;2.48;91.77
25944;BME280;13742;49.306;8.636;2022-12-10T02:17:51;99507.22;;;2.50;91.75
25944;BME280;13742;49.306;8.636;2022-12-10T02:18:55;99501.91;;;2.51;91.80
25944;BME280;13742;49.306;8.636;2022-12-10T02:20:51;99500.25;;;2.52;91.83
25944;BME280;13742;49.306;8.636;2022-12-10T02:21:50;99498.13;;;2.52;91.87
25944;BME280;13742;49.306;8.636;2022-12-10T02:22:50;99496.13;;;2.52;91.94
25944;BME280;13742;49.306;8.636;2022-12-10T02:23:51;99493.50;;;2.53;92.12
25944;BME280;13742;49.306;8.636;2022-12-10T02:24:50;99495.53;;;2.53;92.04
25944;BME280;13742;49.306;8.636;2022-12-10T02:25:54;99495.33;;;2.42;92.23
25944;BME280;13742;49.306;8.636;2022-12-10T02:27:55;99497.61;;;2.28;93.90
25944;BME280;13742;49.306;8.636;2022-12-10T02:29:50;99493.65;;;2.35;93.87
25944;BME280;13742;49.306;8.636;2022-12-10T02:30:50;99495.19;;;2.35;93.72
25944;BME280;13742;49.306;8.636;2022-12-10T02:31:51;99498.42;;;2.28;93.67
25944;BME280;13742;49.306;8.636;2022-12-10T02:32:50;99495.31;;;2.29;93.80
25944;BME280;13742;49.306;8.636;2022-12-10T02:33:51;99495.94;;;2.31;93.89
25944;BME280;13742;49.306;8.636;2022-12-10T02:34:52;99493.46;;;2.33;93.82
25944;BME280;13742;49.306;8.636;2022-12-10T02:35:50;99490.95;;;2.34;93.64
25944;BME280;13742;49.306;8.636;2022-12-10T02:37:03;99486.44;;;2.35;93.54
25944;BME280;13742;49.306;8.636;2022-12-10T02:37:53;99490.95;;;2.35;93.43
25944;BME280;13742;49.306;8.636;2022-12-10T02:38:50;99490.00;;;2.36;93.17
25944;BME280;13742;49.306;8.636;2022-12-10T02:39:50;99489.33;;;2.38;93.42
25944;BME280;13742;49.306;8.636;2022-12-10T02:40:51;99489.34;;;2.39;93.15
25944;BME280;13742;49.306;8.636;2022-12-10T02:41:51;99484.31;;;2.35;92.97
25944;BME280;13742;49.306;8.636;2022-12-10T02:42:50;99490.32;;;2.30;93.19
25944;BME280;13742;49.306;8.636;2022-12-10T02:43:51;99489.09;;;2.30;93.24
25944;BME280;13742;49.306;8.636;2022-12-10T02:44:50;99491.08;;;2.33;93.47
25944;BME280;13742;49.306;8.636;2022-12-10T02:45:50;99482.45;;;2.32;93.07
25944;BME280;13742;49.306;8.636;2022-12-10T02:46:50;99483.69;;;2.33;92.94
25944;BME280;13742;49.306;8.636;2022-12-10T02:47:50;99481.16;;;2.28;93.11
25944;BME280;13742;49.306;8.636;2022-12-10T02:48:50;99481.38;;;2.31;93.02
25944;BME280;13742;49.306;8.636;2022-12-10T02:49:50;99480.98;;;2.32;92.94
25944;BME280;13742;49.306;8.636;2022-12-10T02:50:50;99476.63;;;2.30;92.41
25944;BME280;13742;49.306;8.636;2022-12-10T02:51:50;99479.88;;;2.30;92.73
25944;BME280;13742;49.306;8.636;2022-12-10T02:52:50;99480.30;;;2.31;92.69
25944;BME280;13742;49.306;8.636;2022-12-10T02:54:50;99477.52;;;2.21;92.69
25944;BME280;13742;49.306;8.636;2022-12-10T02:55:55;99481.61;;;2.24;93.27
25944;BME280;13742;49.306;8.636;2022-12-10T02:56:51;99480.77;;;2.17;93.61
25944;BME280;13742;49.306;8.636;2022-12-10T02:57:53;99479.31;;;2.15;93.75
25944;BME280;13742;49.306;8.636;2022-12-10T03:00:57;99477.39;;;2.17;94.12
25944;BME280;13742;49.306;8.636;2022-12-10T03:02:12;99481.74;;;2.17;94.13
25944;BME280;13742;49.306;8.636;2022-12-10T03:02:59;99481.29;;;2.14;94.14
25944;BME280;13742;49.306;8.636;2022-12-10T03:03:52;99483.98;;;2.07;94.26
25944;BME280;13742;49.306;8.636;2022-12-10T03:04:54;99480.70;;;2.00;94.17
25944;BME280;13742;49.306;8.636;2022-12-10T03:06:53;99482.17;;;2.03;94.73
25944;BME280;13742;49.306;8.636;2022-12-10T03:07:55;99482.69;;;2.04;94.76
25944;BME280;13742;49.306;8.636;2022-12-10T03:09:53;99483.06;;;2.10;94.81
25944;BME280;13742;49.306;8.636;2022-12-10T03:11:51;99482.84;;;2.12;94.60
25944;BME280;13742;49.306;8.636;2022-12-10T03:12:51;99482.06;;;2.09;94.19
25944;BME280;13742;49.306;8.636;2022-12-10T03:14:49;99481.24;;;2.13;94.16
25944;BME280;13742;49.306;8.636;2022-12-10T03:15:49;99480.19;;;2.12;94.22
25944;BME280;13742;49.306;8.636;2022-12-10T03:16:51;99478.53;;;2.09;94.08
25944;BME280;13742;49.306;8.636;2022-12-10T03:17:50;99478.95;;;2.06;94.10
25944;BME280;13742;49.306;8.636;2022-12-10T03:18:52;99478.41;;;2.10;93.96
25944;BME280;13742;49.306;8.636;2022-12-10T03:19:49;99475.97;;;2.10;93.85
25944;BME280;13742;49.306;8.636;2022-12-10T03:20:50;99475.41;;;2.10;93.96
25944;BME280;13742;49.306;8.636;2022-12-10T03:21:50;99474.52;;;2.08;94.08
25944;BME280;13742;49.306;8.636;2022-12-10T03:22:49;99477.03;;;2.03;94.40
25944;BME280;13742;49.306;8.636;2022-12-10T03:23:49;99472.95;;;1.99;94.64
25944;BME280;13742;49.306;8.636;2022-12-10T03:24:50;99471.52;;;2.03;94.76
25944;BME280;13742;49.306;8.636;2022-12-10T03:25:50;99474.38;;;1.99;94.94
25944;BME280;13742;49.306;8.636;2022-12-10T03:26:49;99471.58;;;2.00;95.06
25944;BME280;13742;49.306;8.636;2022-12-10T03:27:50;99467.63;;;2.04;95.33
25944;BME280;13742;49.306;8.636;2022-12-10T03:28:50;99467.58;;;1.96;95.11
25944;BME280;13742;49.306;8.636;2022-12-10T03:29:50;99466.31;;;1.98;95.28
25944;BME280;13742;49.306;8.636;2022-12-10T03:30:49;99467.11;;;1.98;94.87
25944;BME280;13742;49.306;8.636;2022-12-10T03:31:50;99465.56;;;2.00;94.71
25944;BME280;13742;49.306;8.636;2022-12-10T03:32:50;99466.13;;;1.98;94.54
25944;BME280;13742;49.306;8.636;2022-12-10T03:33:50;99466.44;;;1.94;94.42
25944;BME280;13742;49.306;8.636;2022-12-10T03:34:50;99465.92;;;1.97;94.80
25944;BME280;13742;49.306;8.636;2022-12-10T03:35:50;99466.66;;;1.90;94.52
25944;BME280;13742;49.306;8.636;2022-12-10T03:36:50;99468.80;;;1.86;94.37
25944;BME280;13742;49.306;8.636;2022-12-10T03:37:50;99466.58;;;1.90;94.42
25944;BME280;13742;49.306;8.636;2022-12-10T03:38:49;99469.95;;;1.95;94.89
25944;BME280;13742;49.306;8.636;2022-12-10T03:39:50;99471.30;;;1.94;94.76
25944;BME280;13742;49.306;8.636;2022-12-10T03:40:49;99473.58;;;1.89;94.57
25944;BME280;13742;49.306;8.636;2022-12-10T03:41:49;99470.36;;;1.82;94.51
25944;BME280;13742;49.306;8.636;2022-12-10T03:42:50;99472.71;;;1.87;94.79
25944;BME280;13742;49.306;8.636;2022-12-10T03:43:54;99474.38;;;1.82;94.84
25944;BME280;13742;49.306;8.636;2022-12-10T03:44:50;99480.36;;;1.87;94.99
25944;BME280;13742;49.306;8.636;2022-12-10T03:45:49;99480.12;;;1.82;94.93
25944;BME280;13742;49.306;8.636;2022-12-10T03:46:50;99474.09;;;1.81;95.09
25944;BME280;13742;49.306;8.636;2022-12-10T03:47:49;99478.83;;;1.85;94.88
25944;BME280;13742;49.306;8.636;2022-12-10T03:48:50;99478.55;;;1.86;94.86
25944;BME280;13742;49.306;8.636;2022-12-10T03:49:49;99477.52;;;1.86;94.41
25944;BME280;13742;49.306;8.636;2022-12-10T03:50:49;99480.20;;;1.87;94.75
25944;BME280;13742;49.306;8.636;2022-12-10T03:51:50;99482.92;;;1.89;94.66
25944;BME280;13742;49.306;8.636;2022-12-10T03:52:49;99482.55;;;1.83;94.52
25944;BME280;13742;49.306;8.636;2022-12-10T03:53:49;99482.50;;;1.78;94.61
25944;BME280;13742;49.306;8.636;2022-12-10T03:54:49;99480.56;;;1.82;94.76
25944;BME280;13742;49.306;8.636;2022-12-10T03:55:49;99480.27;;;1.78;94.94
25944;BME280;13742;49.306;8.636;2022-12-10T03:56:50;99486.84;;;1.73;94.80
25944;BME280;13742;49.306;8.636;2022-12-10T03:57:49;99484.66;;;1.78;94.73
25944;BME280;13742;49.306;8.636;2022-12-10T03:58:49;99486.30;;;1.72;95.06
25944;BME280;13742;49.306;8.636;2022-12-10T03:59:49;99484.63;;;1.60;95.33
25944;BME280;13742;49.306;8.636;2022-12-10T04:00:50;99484.89;;;1.66;95.79
25944;BME280;13742;49.306;8.636;2022-12-10T04:01:49;99489.38;;;1.69;95.78
25944;BME280;13742;49.306;8.636;2022-12-10T04:02:49;99486.30;;;1.69;95.71
25944;BME280;13742;49.306;8.636;2022-12-10T04:03:49;99484.68;;;1.62;95.59
25944;BME280;13742;49.306;8.636;2022-12-10T04:04:49;99486.59;;;1.60;95.80
25944;BME280;13742;49.306;8.636;2022-12-10T04:05:49;99486.14;;;1.57;95.97
25944;BME280;13742;49.306;8.636;2022-12-10T04:06:49;99486.92;;;1.60;96.11
25944;BME280;13742;49.306;8.636;2022-12-10T04:07:49;99484.86;;;1.55;95.95
25944;BME280;13742;49.306;8.636;2022-12-10T04:08:49;99483.64;;;1.53;95.94
25944;BME280;13742;49.306;8.636;2022-12-10T04:09:49;99482.97;;;1.51;96.06
25944;BME280;13742;49.306;8.636;2022-12-10T04:10:49;99483.52;;;1.50;96.26
25944;BME280;13742;49.306;8.636;2022-12-10T04:11:49;99490.17;;;1.45;96.18
25944;BME280;13742;49.306;8.636;2022-12-10T04:13:04;99491.22;;;1.49;96.45
25944;BME280;13742;49.306;8.636;2022-12-10T04:13:54;99490.04;;;1.53;96.75
25944;BME280;13742;49.306;8.636;2022-12-10T04:14:55;99492.47;;;1.48;96.61
25944;BME280;13742;49.306;8.636;2022-12-10T04:15:56;99493.84;;;1.56;97.06
25944;BME280;13742;49.306;8.636;2022-12-10T04:16:49;99496.05;;;1.55;96.51
25944;BME280;13742;49.306;8.636;2022-12-10T04:17:49;99497.17;;;1.61;96.58
25944;BME280;13742;49.306;8.636;2022-12-10T04:18:49;99495.06;;;1.61;96.33
25944;BME280;13742;49.306;8.636;2022-12-10T04:19:49;99494.91;;;1.62;96.24
25944;BME280;13742;49.306;8.636;2022-12-10T04:20:54;99492.95;;;1.61;96.31
25944;BME280;13742;49.306;8.636;2022-12-10T04:21:54;99495.19;;;1.63;96.05
25944;BME280;13742;49.306;8.636;2022-12-10T04:22:54;99495.34;;;1.58;95.72
25944;BME280;13742;49.306;8.636;2022-12-10T04:23:54;99497.44;;;1.62;95.86
25944;BME280;13742;49.306;8.636;2022-12-10T04:24:54;99497.97;;;1.60;95.76
25944;BME280;13742;49.306;8.636;2022-12-10T04:25:54;99497.59;;;1.62;95.95
25944;BME280;13742;49.306;8.636;2022-12-10T04:26:52;99500.13;;;1.51;95.92
25944;BME280;13742;49.306;8.636;2022-12-10T04:27:49;99500.48;;;1.59;96.30
25944;BME280;13742;49.306;8.636;2022-12-10T04:28:49;99500.19;;;1.63;96.40
25944;BME280;13742;49.306;8.636;2022-12-10T04:29:50;99496.94;;;1.57;96.13
25944;BME280;13742;49.306;8.636;2022-12-10T04:30:49;99501.07;;;1.56;96.39
25944;BME280;13742;49.306;8.636;2022-12-10T04:31:50;99498.45;;;1.57;96.26
25944;BME280;13742;49.306;8.636;2022-12-10T04:32:49;99501.11;;;1.62;96.24
25944;BME280;13742;49.306;8.636;2022-12-10T04:33:49;99498.39;;;1.58;96.03
25944;BME280;13742;49.306;8.636;2022-12-10T04:34:49;99499.59;;;1.51;95.91
25944;BME280;13742;49.306;8.636;2022-12-10T04:35:49;99503.39;;;1.52;96.24
25944;BME280;13742;49.306;8.636;2022-12-10T04:36:50;99502.82;;;1.53;96.33
25944;BME280;13742;49.306;8.636;2022-12-10T04:37:49;99505.47;;;1.54;96.32
25944;BME280;13742;49.306;8.636;2022-12-10T04:38:49;99504.73;;;1.59;96.48
25944;BME280;13742;49.306;8.636;2022-12-10T04:39:50;99508.48;;;1.61;96.43
25944;BME280;13742;49.306;8.636;2022-12-10T04:40:49;99510.34;;;1.60;96.05
25944;BME280;13742;49.306;8.636;2022-12-10T04:41:51;99511.48;;;1.60;96.22
25944;BME280;13742;49.306;8.636;2022-12-10T04:42:49;99508.86;;;1.53;96.02
25944;BME280;13742;49.306;8.636;2022-12-10T04:43:50;99512.63;;;1.60;96.13
25944;BME280;13742;49.306;8.636;2022-12-10T04:44:49;99511.56;;;1.59;95.88
25944;BME280;13742;49.306;8.636;2022-12-10T04:45:49;99512.91;;;1.63;96.20
25944;BME280;13742;49.306;8.636;2022-12-10T04:46:49;99511.72;;;1.63;96.05
25944;BME280;13742;49.306;8.636;2022-12-10T04:47:49;99511.31;;;1.62;95.89
25944;BME280;13742;49.306;8.636;2022-12-10T04:48:49;99517.25;;;1.60;95.75
25944;BME280;13742;49.306;8.636;2022-12-10T04:49:49;99518.20;;;1.56;95.83
25944;BME280;13742;49.306;8.636;2022-12-10T04:50:49;99514.78;;;1.57;96.00
25944;BME280;13742;49.306;8.636;2022-12-10T04:51:50;99519.11;;;1.53;95.92
25944;BME280;13742;49.306;8.636;2022-12-10T04:52:49;99515.72;;;1.60;96.29
25944;BME280;13742;49.306;8.636;2022-12-10T04:53:49;99520.11;;;1.61;96.19
25944;BME280;13742;49.306;8.636;2022-12-10T04:54:49;99518.63;;;1.57;95.93
25944;BME280;13742;49.306;8.636;2022-12-10T04:55:49;99517.45;;;1.56;96.01
25944;BME280;13742;49.306;8.636;2022-12-10T04:56:49;99514.20;;;1.60;96.27
25944;BME280;13742;49.306;8.636;2022-12-10T04:57:49;99517.01;;;1.65;96.37
25944;BME280;13742;49.306;8.636;2022-12-10T04:58:49;99514.62;;;1.66;96.20
25944;BME280;13742;49.306;8.636;2022-12-10T04:59:49;99519.23;;;1.68;96.02
25944;BME280;13742;49.306;8.636;2022-12-10T05:00:49;99516.33;;;1.65;95.69
25944;BME280;13742;49.306;8.636;2022-12-10T05:01:49;99514.41;;;1.65;95.97
25944;BME280;13742;49.306;8.636;2022-12-10T05:02:49;99517.53;;;1.64;95.57
25944;BME280;13742;49.306;8.636;2022-12-10T05:03:49;99514.18;;;1.66;95.76
25944;BME280;13742;49.306;8.636;2022-12-10T05:04:49;99520.22;;;1.65;95.50
25944;BME280;13742;49.306;8.636;2022-12-10T05:05:49;99511.16;;;1.67;95.47
25944;BME280;13742;49.306;8.636;2022-12-10T05:06:49;99517.94;;;1.69;95.53
25944;BME280;13742;49.306;8.636;2022-12-10T05:07:49;99519.83;;;1.70;95.11
25944;BME280;13742;49.306;8.636;2022-12-10T05:08:49;99524.16;;;1.72;95.18
25944;BME280;13742;49.306;8.636;2022-12-10T05:09:49;99518.77;;;1.75;95.07
25944;BME280;13742;49.306;8.636;2022-12-10T05:10:49;99520.66;;;1.76;95.00
25944;BME280;13742;49.306;8.636;2022-12-10T05:11:49;99524.96;;;1.77;94.83
25944;BME280;13742;49.306;8.636;2022-12-10T05:12:49;99524.81;;;1.76;94.72
25944;BME280;13742;49.306;8.636;2022-12-10T05:13:50;99527.06;;;1.79;94.87
25944;BME280;13742;49.306;8.636;2022-12-10T05:14:49;99529.23;;;1.80;94.53
25944;BME280;13742;49.306;8.636;2022-12-10T05:15:49;99533.87;;;1.78;94.18
25944;BME280;13742;49.306;8.636;2022-12-10T05:16:50;99528.28;;;1.81;94.36
25944;BME280;13742;49.306;8.636;2022-12-10T05:17:49;99535.59;;;1.83;94.31
25944;BME280;13742;49.306;8.636;2022-12-10T05:18:49;99532.55;;;1.84;94.24
25944;BME280;13742;49.306;8.636;2022-12-10T05:19:49;99535.74;;;1.85;94.16
25944;BME280;13742;49.306;8.636;2022-12-10T05:20:49;99533.40;;;1.86;94.17
25944;BME280;13742;49.306;8.636;2022-12-10T05:21:54;99537.17;;;1.87;93.88
25944;BME280;13742;49.306;8.636;2022-12-10T05:22:54;99541.27;;;1.84;93.62
25944;BME280;13742;49.306;8.636;2022-12-10T05:23:50;99539.88;;;1.84;93.94
25944;BME280;13742;49.306;8.636;2022-12-10T05:24:49;99545.42;;;1.85;93.88
25944;BME280;13742;49.306;8.636;2022-12-10T05:26:51;99548.16;;;1.80;93.45
25944;BME280;13742;49.306;8.636;2022-12-10T05:27:49;99544.38;;;1.79;93.74
25944;BME280;13742;49.306;8.636;2022-12-10T05:28:53;99544.02;;;1.81;93.83
25944;BME280;13742;49.306;8.636;2022-12-10T05:29:49;99543.74;;;1.77;93.95
25944;BME280;13742;49.306;8.636;2022-12-10T05:30:49;99544.81;;;1.77;93.84
25944;BME280;13742;49.306;8.636;2022-12-10T05:31:49;99546.16;;;1.74;93.95
25944;BME280;13742;49.306;8.636;2022-12-10T05:32:49;99544.77;;;1.78;94.37
25944;BME280;13742;49.306;8.636;2022-12-10T05:33:50;99542.17;;;1.76;94.25
25944;BME280;13742;49.306;8.636;2022-12-10T05:34:49;99540.77;;;1.77;94.40
25944;BME280;13742;49.306;8.636;2022-12-10T05:35:56;99544.34;;;1.77;94.00
25944;BME280;13742;49.306;8.636;2022-12-10T05:36:49;99542.85;;;1.68;93.97
25944;BME280;13742;49.306;8.636;2022-12-10T05:37:49;99541.79;;;1.66;94.40
25944;BME280;13742;49.306;8.636;2022-12-10T05:38:50;99538.56;;;1.65;94.49
25944;BME280;13742;49.306;8.636;2022-12-10T05:39:49;99541.05;;;1.69;94.52
25944;BME280;13742;49.306;8.636;2022-12-10T05:40:50;99539.34;;;1.69;94.33
25944;BME280;13742;49.306;8.636;2022-12-10T05:41:49;99539.11;;;1.70;94.10
25944;BME280;13742;49.306;8.636;2022-12-10T05:42:49;99538.66;;;1.68;94.04
25944;BME280;13742;49.306;8.636;2022-12-10T05:43:50;99536.48;;;1.65;94.17